sensor_id;sensor_type;location;lat;lon;timestamp;P1;durP1;ratioP1;P2;durP2;ratioP2
19733;SDS011;10018;51.230;7.860;2023-03-20T00:00:36;7.93;;;5.23;;
19733;SDS011;10018;51.230;7.860;2023-03-20T00:03:05;9.60;;;6.20;;
19733;SDS011;10018;51.230;7.860;2023-03-20T00:05:31;11.00;;;6.57;;
19733;SDS011;10018;51.230;7.860;2023-03-20T00:07:57;10.60;;;6.57;;
19733;SDS011;10018;51.230;7.860;2023-03-20T00:10:45;10.77;;;5.93;;
19733;SDS011;10018;51.230;7.860;2023-03-20T00:13:12;8.57;;;5.83;;
19733;SDS011;10018;51.230;7.860;2023-03-20T00:15:52;9.20;;;5.33;;
19733;SDS011;10018;51.230;7.860;2023-03-20T00:18:19;12.53;;;7.33;;
19733;SDS011;10018;51.230;7.860;2023-03-20T00:20:47;10.00;;;6.60;;
19733;SDS011;10018;51.230;7.860;2023-03-20T00:23:14;9.00;;;6.10;;
19733;SDS011;10018;51.230;7.860;2023-03-20T00:25:41;8.73;;;5.90;;
19733;SDS011;10018;51.230;7.860;2023-03-20T00:28:50;7.77;;;5.37;;
19733;SDS011;10018;51.230;7.860;2023-03-20T00:31:00;9.73;;;5.20;;
19733;SDS011;10018;51.230;7.860;2023-03-20T00:33:26;8.30;;;5.57;;
19733;SDS011;10018;51.230;7.860;2023-03-20T00:35:52;8.90;;;5.43;;
19733;SDS011;10018;51.230;7.860;2023-03-20T00:38:17;8.90;;;6.17;;
19733;SDS011;10018;51.230;7.860;2023-03-20T00:40:43;10.43;;;6.43;;
19733;SDS011;10018;51.230;7.860;2023-03-20T00:43:09;10.57;;;7.40;;
19733;SDS011;10018;51.230;7.860;2023-03-20T00:45:37;11.53;;;7.27;;
19733;SDS011;10018;51.230;7.860;2023-03-20T00:48:02;11.07;;;7.10;;
19733;SDS011;10018;51.230;7.860;2023-03-20T00:50:29;9.00;;;5.90;;
19733;SDS011;10018;51.230;7.860;2023-03-20T00:52:55;14.10;;;7.10;;
19733;SDS011;10018;51.230;7.860;2023-03-20T00:55:23;11.03;;;6.87;;
19733;SDS011;10018;51.230;7.860;2023-03-20T00:57:58;11.97;;;7.70;;
19733;SDS011;10018;51.230;7.860;2023-03-20T01:02:58;15.40;;;8.67;;
19733;SDS011;10018;51.230;7.860;2023-03-20T01:05:25;16.40;;;9.70;;
19733;SDS011;10018;51.230;7.860;2023-03-20T01:07:54;13.90;;;8.77;;
19733;SDS011;10018;51.230;7.860;2023-03-20T01:10:20;19.80;;;11.00;;
19733;SDS011;10018;51.230;7.860;2023-03-20T01:12:47;24.03;;;13.10;;
19733;SDS011;10018;51.230;7.860;2023-03-20T01:15:17;27.20;;;15.00;;
19733;SDS011;10018;51.230;7.860;2023-03-20T01:17:51;29.07;;;15.97;;
19733;SDS011;10018;51.230;7.860;2023-03-20T01:20:18;31.43;;;16.57;;
19733;SDS011;10018;51.230;7.860;2023-03-20T01:22:47;33.37;;;18.43;;
19733;SDS011;10018;51.230;7.860;2023-03-20T01:25:12;46.67;;;23.13;;
19733;SDS011;10018;51.230;7.860;2023-03-20T01:27:38;64.53;;;31.97;;
19733;SDS011;10018;51.230;7.860;2023-03-20T01:30:09;64.63;;;32.97;;
19733;SDS011;10018;51.230;7.860;2023-03-20T01:32:42;71.50;;;36.47;;
19733;SDS011;10018;51.230;7.860;2023-03-20T01:35:12;80.37;;;39.73;;
19733;SDS011;10018;51.230;7.860;2023-03-20T01:37:38;86.63;;;40.60;;
19733;SDS011;10018;51.230;7.860;2023-03-20T01:40:10;85.47;;;39.10;;
19733;SDS011;10018;51.230;7.860;2023-03-20T01:42:41;89.43;;;40.60;;
19733;SDS011;10018;51.230;7.860;2023-03-20T01:45:20;95.63;;;44.00;;
19733;SDS011;10018;51.230;7.860;2023-03-20T01:47:47;93.23;;;42.63;;
19733;SDS011;10018;51.230;7.860;2023-03-20T01:52:58;98.43;;;44.17;;
19733;SDS011;10018;51.230;7.860;2023-03-20T01:55:36;105.27;;;45.20;;
19733;SDS011;10018;51.230;7.860;2023-03-20T01:58:06;101.83;;;44.03;;
19733;SDS011;10018;51.230;7.860;2023-03-20T02:00:34;100.47;;;44.50;;
19733;SDS011;10018;51.230;7.860;2023-03-20T02:03:00;98.97;;;43.80;;
19733;SDS011;10018;51.230;7.860;2023-03-20T02:05:28;95.07;;;42.80;;
19733;SDS011;10018;51.230;7.860;2023-03-20T02:08:00;102.70;;;44.10;;
19733;SDS011;10018;51.230;7.860;2023-03-20T02:10:32;97.93;;;42.20;;
19733;SDS011;10018;51.230;7.860;2023-03-20T02:12:58;99.73;;;43.70;;
19733;SDS011;10018;51.230;7.860;2023-03-20T02:15:26;104.53;;;45.57;;
19733;SDS011;10018;51.230;7.860;2023-03-20T02:17:56;104.00;;;45.03;;
19733;SDS011;10018;51.230;7.860;2023-03-20T02:20:26;93.13;;;41.80;;
19733;SDS011;10018;51.230;7.860;2023-03-20T02:37:30;64.53;;;30.10;;
19733;SDS011;10018;51.230;7.860;2023-03-20T02:40:28;61.60;;;29.87;;
19733;SDS011;10018;51.230;7.860;2023-03-20T02:53:53;58.63;;;24.43;;
19733;SDS011;10018;51.230;7.860;2023-03-20T02:59:22;47.43;;;21.43;;
19733;SDS011;10018;51.230;7.860;2023-03-20T03:02:13;40.53;;;19.53;;
19733;SDS011;10018;51.230;7.860;2023-03-20T03:04:48;36.80;;;17.93;;
19733;SDS011;10018;51.230;7.860;2023-03-20T03:07:23;32.23;;;15.60;;
19733;SDS011;10018;51.230;7.860;2023-03-20T03:09:55;35.93;;;17.07;;
19733;SDS011;10018;51.230;7.860;2023-03-20T03:12:28;33.60;;;17.23;;
19733;SDS011;10018;51.230;7.860;2023-03-20T03:15:03;32.10;;;16.73;;
19733;SDS011;10018;51.230;7.860;2023-03-20T03:17:41;32.13;;;15.07;;
19733;SDS011;10018;51.230;7.860;2023-03-20T03:20:18;30.27;;;15.53;;
19733;SDS011;10018;51.230;7.860;2023-03-20T03:22:45;31.33;;;14.90;;
19733;SDS011;10018;51.230;7.860;2023-03-20T03:25:11;29.57;;;14.73;;
19733;SDS011;10018;51.230;7.860;2023-03-20T03:27:38;31.07;;;16.10;;
19733;SDS011;10018;51.230;7.860;2023-03-20T03:30:10;28.00;;;14.77;;
19733;SDS011;10018;51.230;7.860;2023-03-20T03:32:49;31.63;;;15.20;;
19733;SDS011;10018;51.230;7.860;2023-03-20T03:35:21;27.77;;;14.57;;
19733;SDS011;10018;51.230;7.860;2023-03-20T03:37:52;29.00;;;14.90;;
19733;SDS011;10018;51.230;7.860;2023-03-20T03:45:28;30.23;;;14.13;;
19733;SDS011;10018;51.230;7.860;2023-03-20T03:50:50;28.73;;;15.10;;
19733;SDS011;10018;51.230;7.860;2023-03-20T03:53:51;26.80;;;14.30;;
19733;SDS011;10018;51.230;7.860;2023-03-20T03:56:19;25.37;;;14.20;;
19733;SDS011;10018;51.230;7.860;2023-03-20T03:58:47;27.70;;;14.70;;
19733;SDS011;10018;51.230;7.860;2023-03-20T04:01:16;29.20;;;15.47;;
19733;SDS011;10018;51.230;7.860;2023-03-20T04:03:54;28.87;;;15.30;;
19733;SDS011;10018;51.230;7.860;2023-03-20T04:06:25;28.63;;;14.73;;
19733;SDS011;10018;51.230;7.860;2023-03-20T04:08:52;27.40;;;14.90;;
19733;SDS011;10018;51.230;7.860;2023-03-20T04:11:18;28.07;;;14.70;;
19733;SDS011;10018;51.230;7.860;2023-03-20T04:13:51;26.73;;;14.33;;
19733;SDS011;10018;51.230;7.860;2023-03-20T04:16:17;29.93;;;15.90;;
19733;SDS011;10018;51.230;7.860;2023-03-20T04:18:44;27.90;;;15.17;;
19733;SDS011;10018;51.230;7.860;2023-03-20T04:21:10;31.57;;;15.87;;
19733;SDS011;10018;51.230;7.860;2023-03-20T04:23:36;30.30;;;15.20;;
19733;SDS011;10018;51.230;7.860;2023-03-20T04:26:02;26.93;;;14.47;;
19733;SDS011;10018;51.230;7.860;2023-03-20T04:28:28;25.43;;;13.50;;
19733;SDS011;10018;51.230;7.860;2023-03-20T04:30:54;25.83;;;14.23;;
19733;SDS011;10018;51.230;7.860;2023-03-20T04:33:21;25.20;;;13.20;;
19733;SDS011;10018;51.230;7.860;2023-03-20T04:35:47;26.33;;;14.30;;
19733;SDS011;10018;51.230;7.860;2023-03-20T04:38:13;25.53;;;13.50;;
19733;SDS011;10018;51.230;7.860;2023-03-20T04:40:39;28.50;;;13.50;;
19733;SDS011;10018;51.230;7.860;2023-03-20T04:43:05;26.17;;;13.07;;
19733;SDS011;10018;51.230;7.860;2023-03-20T04:45:30;25.63;;;13.30;;
19733;SDS011;10018;51.230;7.860;2023-03-20T04:47:56;23.90;;;13.33;;
19733;SDS011;10018;51.230;7.860;2023-03-20T04:50:22;26.20;;;14.17;;
19733;SDS011;10018;51.230;7.860;2023-03-20T04:52:50;29.77;;;14.80;;
19733;SDS011;10018;51.230;7.860;2023-03-20T04:55:15;27.87;;;15.03;;
19733;SDS011;10018;51.230;7.860;2023-03-20T04:57:41;27.50;;;14.73;;
19733;SDS011;10018;51.230;7.860;2023-03-20T05:00:07;30.90;;;14.73;;
19733;SDS011;10018;51.230;7.860;2023-03-20T05:02:33;31.20;;;14.77;;
19733;SDS011;10018;51.230;7.860;2023-03-20T05:04:59;26.97;;;14.47;;
19733;SDS011;10018;51.230;7.860;2023-03-20T05:07:27;27.53;;;14.27;;
19733;SDS011;10018;51.230;7.860;2023-03-20T05:09:52;25.03;;;14.63;;
19733;SDS011;10018;51.230;7.860;2023-03-20T05:12:18;28.53;;;14.47;;
19733;SDS011;10018;51.230;7.860;2023-03-20T05:14:44;25.37;;;13.33;;
19733;SDS011;10018;51.230;7.860;2023-03-20T05:17:10;26.67;;;13.87;;
19733;SDS011;10018;51.230;7.860;2023-03-20T05:19:35;26.80;;;13.50;;
19733;SDS011;10018;51.230;7.860;2023-03-20T05:22:03;25.63;;;14.17;;
19733;SDS011;10018;51.230;7.860;2023-03-20T05:24:29;28.40;;;15.00;;
19733;SDS011;10018;51.230;7.860;2023-03-20T05:26:57;26.53;;;14.60;;
19733;SDS011;10018;51.230;7.860;2023-03-20T05:29:22;27.53;;;15.17;;
19733;SDS011;10018;51.230;7.860;2023-03-20T05:31:48;30.70;;;15.30;;
19733;SDS011;10018;51.230;7.860;2023-03-20T05:34:14;27.23;;;14.60;;
19733;SDS011;10018;51.230;7.860;2023-03-20T05:36:41;26.17;;;14.23;;
19733;SDS011;10018;51.230;7.860;2023-03-20T05:39:07;22.40;;;13.37;;
19733;SDS011;10018;51.230;7.860;2023-03-20T05:41:32;26.00;;;14.60;;
19733;SDS011;10018;51.230;7.860;2023-03-20T05:43:58;24.33;;;13.77;;
19733;SDS011;10018;51.230;7.860;2023-03-20T05:46:24;23.23;;;13.63;;
19733;SDS011;10018;51.230;7.860;2023-03-20T05:48:50;26.20;;;14.50;;
19733;SDS011;10018;51.230;7.860;2023-03-20T05:51:16;27.40;;;15.47;;
19733;SDS011;10018;51.230;7.860;2023-03-20T05:53:44;23.23;;;13.30;;
19733;SDS011;10018;51.230;7.860;2023-03-20T05:56:09;28.37;;;15.93;;
19733;SDS011;10018;51.230;7.860;2023-03-20T05:58:38;26.37;;;14.60;;
19733;SDS011;10018;51.230;7.860;2023-03-20T06:01:03;27.17;;;14.77;;
19733;SDS011;10018;51.230;7.860;2023-03-20T06:03:29;24.97;;;14.13;;
19733;SDS011;10018;51.230;7.860;2023-03-20T06:05:55;25.60;;;14.70;;
19733;SDS011;10018;51.230;7.860;2023-03-20T06:08:20;26.40;;;15.10;;
19733;SDS011;10018;51.230;7.860;2023-03-20T06:10:51;28.33;;;14.87;;
19733;SDS011;10018;51.230;7.860;2023-03-20T06:13:17;26.77;;;14.60;;
19733;SDS011;10018;51.230;7.860;2023-03-20T06:15:42;23.57;;;13.93;;
19733;SDS011;10018;51.230;7.860;2023-03-20T06:18:08;32.00;;;16.27;;
19733;SDS011;10018;51.230;7.860;2023-03-20T06:20:36;26.60;;;14.60;;
19733;SDS011;10018;51.230;7.860;2023-03-20T06:23:01;27.97;;;16.20;;
19733;SDS011;10018;51.230;7.860;2023-03-20T06:25:27;26.33;;;15.00;;
19733;SDS011;10018;51.230;7.860;2023-03-20T06:27:52;31.07;;;16.17;;
19733;SDS011;10018;51.230;7.860;2023-03-20T06:30:20;29.37;;;16.37;;
19733;SDS011;10018;51.230;7.860;2023-03-20T06:32:46;31.20;;;16.57;;
19733;SDS011;10018;51.230;7.860;2023-03-20T06:35:12;32.27;;;17.87;;
19733;SDS011;10018;51.230;7.860;2023-03-20T06:37:38;33.93;;;17.50;;
19733;SDS011;10018;51.230;7.860;2023-03-20T06:40:06;32.43;;;17.70;;
19733;SDS011;10018;51.230;7.860;2023-03-20T06:42:34;31.93;;;17.43;;
19733;SDS011;10018;51.230;7.860;2023-03-20T06:44:59;32.97;;;18.53;;
19733;SDS011;10018;51.230;7.860;2023-03-20T06:47:27;36.70;;;18.73;;
19733;SDS011;10018;51.230;7.860;2023-03-20T06:49:55;32.37;;;17.57;;
19733;SDS011;10018;51.230;7.860;2023-03-20T06:52:20;34.27;;;18.60;;
19733;SDS011;10018;51.230;7.860;2023-03-20T06:54:46;33.73;;;18.23;;
19733;SDS011;10018;51.230;7.860;2023-03-20T06:57:14;33.83;;;18.17;;
19733;SDS011;10018;51.230;7.860;2023-03-20T06:59:41;32.80;;;18.20;;
19733;SDS011;10018;51.230;7.860;2023-03-20T07:02:09;32.03;;;18.27;;
19733;SDS011;10018;51.230;7.860;2023-03-20T07:04:35;31.10;;;17.80;;
19733;SDS011;10018;51.230;7.860;2023-03-20T07:07:03;35.27;;;18.50;;
19733;SDS011;10018;51.230;7.860;2023-03-20T07:09:29;32.37;;;17.73;;
19733;SDS011;10018;51.230;7.860;2023-03-20T07:11:55;35.80;;;18.10;;
19733;SDS011;10018;51.230;7.860;2023-03-20T07:14:20;31.93;;;17.97;;
19733;SDS011;10018;51.230;7.860;2023-03-20T07:16:46;32.33;;;18.17;;
19733;SDS011;10018;51.230;7.860;2023-03-20T07:19:12;37.57;;;18.93;;
19733;SDS011;10018;51.230;7.860;2023-03-20T07:21:38;33.97;;;19.20;;
19733;SDS011;10018;51.230;7.860;2023-03-20T07:24:03;34.17;;;19.00;;
19733;SDS011;10018;51.230;7.860;2023-03-20T07:26:31;34.53;;;19.27;;
19733;SDS011;10018;51.230;7.860;2023-03-20T07:28:56;32.47;;;18.63;;
19733;SDS011;10018;51.230;7.860;2023-03-20T07:31:23;37.07;;;19.77;;
19733;SDS011;10018;51.230;7.860;2023-03-20T07:33:56;34.17;;;19.67;;
19733;SDS011;10018;51.230;7.860;2023-03-20T07:36:22;34.63;;;19.57;;
19733;SDS011;10018;51.230;7.860;2023-03-20T07:38:47;33.50;;;19.13;;
19733;SDS011;10018;51.230;7.860;2023-03-20T07:41:13;36.20;;;19.57;;
19733;SDS011;10018;51.230;7.860;2023-03-20T07:43:38;35.67;;;19.07;;
19733;SDS011;10018;51.230;7.860;2023-03-20T07:46:05;31.10;;;18.20;;
19733;SDS011;10018;51.230;7.860;2023-03-20T07:48:32;35.73;;;18.83;;
19733;SDS011;10018;51.230;7.860;2023-03-20T07:50:58;35.47;;;19.33;;
19733;SDS011;10018;51.230;7.860;2023-03-20T07:53:24;31.60;;;17.77;;
19733;SDS011;10018;51.230;7.860;2023-03-20T07:55:49;34.00;;;17.73;;
19733;SDS011;10018;51.230;7.860;2023-03-20T07:58:15;33.17;;;18.60;;
19733;SDS011;10018;51.230;7.860;2023-03-20T08:00:41;31.60;;;18.43;;
19733;SDS011;10018;51.230;7.860;2023-03-20T08:03:07;30.33;;;17.80;;
19733;SDS011;10018;51.230;7.860;2023-03-20T08:05:33;30.33;;;17.37;;
19733;SDS011;10018;51.230;7.860;2023-03-20T08:07:59;29.27;;;17.33;;
19733;SDS011;10018;51.230;7.860;2023-03-20T08:10:24;29.40;;;16.50;;
19733;SDS011;10018;51.230;7.860;2023-03-20T08:12:50;34.07;;;17.87;;
19733;SDS011;10018;51.230;7.860;2023-03-20T08:15:16;30.97;;;17.30;;
19733;SDS011;10018;51.230;7.860;2023-03-20T08:17:42;30.70;;;17.73;;
19733;SDS011;10018;51.230;7.860;2023-03-20T08:20:11;29.10;;;16.43;;
19733;SDS011;10018;51.230;7.860;2023-03-20T08:22:38;27.50;;;16.17;;
19733;SDS011;10018;51.230;7.860;2023-03-20T08:25:04;26.57;;;16.20;;
19733;SDS011;10018;51.230;7.860;2023-03-20T08:27:32;29.37;;;16.17;;
19733;SDS011;10018;51.230;7.860;2023-03-20T08:29:58;27.50;;;15.70;;
19733;SDS011;10018;51.230;7.860;2023-03-20T08:32:24;26.50;;;14.57;;
19733;SDS011;10018;51.230;7.860;2023-03-20T08:34:50;21.17;;;12.33;;
19733;SDS011;10018;51.230;7.860;2023-03-20T08:37:16;17.37;;;10.47;;
19733;SDS011;10018;51.230;7.860;2023-03-20T08:39:41;18.33;;;11.20;;
19733;SDS011;10018;51.230;7.860;2023-03-20T08:42:09;21.03;;;10.17;;
19733;SDS011;10018;51.230;7.860;2023-03-20T08:44:35;18.87;;;9.33;;
19733;SDS011;10018;51.230;7.860;2023-03-20T08:47:00;17.10;;;9.47;;
19733;SDS011;10018;51.230;7.860;2023-03-20T08:49:26;15.23;;;8.80;;
19733;SDS011;10018;51.230;7.860;2023-03-20T08:51:52;12.67;;;7.77;;
19733;SDS011;10018;51.230;7.860;2023-03-20T08:54:18;12.30;;;7.67;;
19733;SDS011;10018;51.230;7.860;2023-03-20T08:56:43;13.77;;;7.53;;
19733;SDS011;10018;51.230;7.860;2023-03-20T08:59:10;15.13;;;8.30;;
19733;SDS011;10018;51.230;7.860;2023-03-20T09:01:36;13.30;;;7.40;;
19733;SDS011;10018;51.230;7.860;2023-03-20T09:04:02;12.50;;;7.20;;
19733;SDS011;10018;51.230;7.860;2023-03-20T09:06:27;14.33;;;7.50;;
19733;SDS011;10018;51.230;7.860;2023-03-20T09:08:53;10.93;;;6.63;;
19733;SDS011;10018;51.230;7.860;2023-03-20T09:11:21;9.93;;;6.87;;
19733;SDS011;10018;51.230;7.860;2023-03-20T09:13:46;12.77;;;7.30;;
19733;SDS011;10018;51.230;7.860;2023-03-20T09:16:12;14.57;;;6.27;;
19733;SDS011;10018;51.230;7.860;2023-03-20T09:18:38;12.23;;;6.20;;
19733;SDS011;10018;51.230;7.860;2023-03-20T09:21:03;15.37;;;6.47;;
19733;SDS011;10018;51.230;7.860;2023-03-20T09:23:29;18.13;;;6.53;;
19733;SDS011;10018;51.230;7.860;2023-03-20T09:25:58;12.90;;;6.13;;
19733;SDS011;10018;51.230;7.860;2023-03-20T09:28:24;10.93;;;5.87;;
19733;SDS011;10018;51.230;7.860;2023-03-20T09:30:53;10.07;;;6.03;;
19733;SDS011;10018;51.230;7.860;2023-03-20T09:33:20;10.03;;;5.67;;
19733;SDS011;10018;51.230;7.860;2023-03-20T09:35:46;11.43;;;5.43;;
19733;SDS011;10018;51.230;7.860;2023-03-20T09:38:12;9.97;;;5.60;;
19733;SDS011;10018;51.230;7.860;2023-03-20T09:40:46;12.07;;;5.57;;
19733;SDS011;10018;51.230;7.860;2023-03-20T09:46:06;10.23;;;5.17;;
19733;SDS011;10018;51.230;7.860;2023-03-20T09:51:06;9.27;;;5.57;;
19733;SDS011;10018;51.230;7.860;2023-03-20T09:53:47;10.97;;;6.13;;
19733;SDS011;10018;51.230;7.860;2023-03-20T09:56:22;11.70;;;5.63;;
19733;SDS011;10018;51.230;7.860;2023-03-20T09:58:54;13.10;;;6.23;;
19733;SDS011;10018;51.230;7.860;2023-03-20T10:01:30;9.97;;;5.73;;
19733;SDS011;10018;51.230;7.860;2023-03-20T10:04:09;10.77;;;6.00;;
19733;SDS011;10018;51.230;7.860;2023-03-20T10:06:36;11.00;;;6.37;;
19733;SDS011;10018;51.230;7.860;2023-03-20T10:09:06;12.30;;;6.33;;
19733;SDS011;10018;51.230;7.860;2023-03-20T10:12:07;12.07;;;6.60;;
19733;SDS011;10018;51.230;7.860;2023-03-20T10:17:28;13.37;;;6.67;;
19733;SDS011;10018;51.230;7.860;2023-03-20T10:20:22;13.90;;;6.77;;
19733;SDS011;10018;51.230;7.860;2023-03-20T10:25:59;10.43;;;6.00;;
19733;SDS011;10018;51.230;7.860;2023-03-20T10:28:54;14.10;;;6.33;;
19733;SDS011;10018;51.230;7.860;2023-03-20T10:37:36;11.80;;;6.67;;
19733;SDS011;10018;51.230;7.860;2023-03-20T10:40:29;11.87;;;6.33;;
19733;SDS011;10018;51.230;7.860;2023-03-20T10:43:07;13.67;;;7.40;;
19733;SDS011;10018;51.230;7.860;2023-03-20T10:45:52;11.37;;;6.97;;
19733;SDS011;10018;51.230;7.860;2023-03-20T10:51:01;12.07;;;7.30;;
19733;SDS011;10018;51.230;7.860;2023-03-20T10:56:11;18.73;;;8.57;;
19733;SDS011;10018;51.230;7.860;2023-03-20T10:59:06;11.67;;;7.20;;
19733;SDS011;10018;51.230;7.860;2023-03-20T11:01:36;15.10;;;7.60;;
19733;SDS011;10018;51.230;7.860;2023-03-20T11:04:02;13.17;;;7.97;;
19733;SDS011;10018;51.230;7.860;2023-03-20T11:06:31;16.40;;;8.47;;
19733;SDS011;10018;51.230;7.860;2023-03-20T11:09:10;11.37;;;7.83;;
19733;SDS011;10018;51.230;7.860;2023-03-20T11:11:42;15.30;;;8.90;;
19733;SDS011;10018;51.230;7.860;2023-03-20T11:14:16;16.40;;;8.60;;
19733;SDS011;10018;51.230;7.860;2023-03-20T11:16:50;16.03;;;9.67;;
19733;SDS011;10018;51.230;7.860;2023-03-20T11:19:20;15.87;;;10.23;;
19733;SDS011;10018;51.230;7.860;2023-03-20T11:27:09;16.27;;;10.97;;
19733;SDS011;10018;51.230;7.860;2023-03-20T11:29:38;18.63;;;11.17;;
19733;SDS011;10018;51.230;7.860;2023-03-20T11:34:55;16.53;;;11.83;;
19733;SDS011;10018;51.230;7.860;2023-03-20T11:37:33;16.70;;;11.73;;
19733;SDS011;10018;51.230;7.860;2023-03-20T11:40:06;18.87;;;11.57;;
19733;SDS011;10018;51.230;7.860;2023-03-20T11:45:34;18.37;;;11.50;;
19733;SDS011;10018;51.230;7.860;2023-03-20T11:48:02;19.90;;;12.20;;
19733;SDS011;10018;51.230;7.860;2023-03-20T11:50:35;16.97;;;12.10;;
19733;SDS011;10018;51.230;7.860;2023-03-20T11:53:18;19.03;;;12.00;;
19733;SDS011;10018;51.230;7.860;2023-03-20T11:56:04;19.47;;;11.93;;
19733;SDS011;10018;51.230;7.860;2023-03-20T11:58:56;17.63;;;11.10;;
19733;SDS011;10018;51.230;7.860;2023-03-20T12:01:29;20.53;;;11.83;;
19733;SDS011;10018;51.230;7.860;2023-03-20T12:04:12;16.73;;;11.70;;
19733;SDS011;10018;51.230;7.860;2023-03-20T12:11:55;21.20;;;11.73;;
19733;SDS011;10018;51.230;7.860;2023-03-20T12:17:34;16.93;;;10.77;;
19733;SDS011;10018;51.230;7.860;2023-03-20T12:36:03;14.70;;;8.07;;
19733;SDS011;10018;51.230;7.860;2023-03-20T12:38:38;10.13;;;6.90;;
19733;SDS011;10018;51.230;7.860;2023-03-20T12:41:10;12.53;;;7.30;;
19733;SDS011;10018;51.230;7.860;2023-03-20T12:43:45;11.80;;;7.80;;
19733;SDS011;10018;51.230;7.860;2023-03-20T12:46:43;10.87;;;6.67;;
19733;SDS011;10018;51.230;7.860;2023-03-20T12:57:26;8.00;;;3.80;;
19733;SDS011;10018;51.230;7.860;2023-03-20T13:00:15;11.47;;;3.50;;
19733;SDS011;10018;51.230;7.860;2023-03-20T13:08:33;5.80;;;2.63;;
19733;SDS011;10018;51.230;7.860;2023-03-20T13:11:14;10.30;;;3.77;;
19733;SDS011;10018;51.230;7.860;2023-03-20T13:17:43;5.27;;;2.50;;
19733;SDS011;10018;51.230;7.860;2023-03-20T13:20:32;6.13;;;2.60;;
19733;SDS011;10018;51.230;7.860;2023-03-20T13:23:11;6.63;;;2.73;;
19733;SDS011;10018;51.230;7.860;2023-03-20T13:37:04;6.40;;;2.60;;
19733;SDS011;10018;51.230;7.860;2023-03-20T13:39:47;7.00;;;3.00;;
19733;SDS011;10018;51.230;7.860;2023-03-20T13:42:27;8.47;;;2.90;;
19733;SDS011;10018;51.230;7.860;2023-03-20T13:44:58;7.07;;;3.17;;
19733;SDS011;10018;51.230;7.860;2023-03-20T13:47:29;7.63;;;3.53;;
19733;SDS011;10018;51.230;7.860;2023-03-20T13:52:54;5.57;;;3.50;;
19733;SDS011;10018;51.230;7.860;2023-03-20T14:00:54;10.17;;;4.40;;
19733;SDS011;10018;51.230;7.860;2023-03-20T14:03:35;8.77;;;4.17;;
19733;SDS011;10018;51.230;7.860;2023-03-20T14:08:55;9.20;;;4.50;;
19733;SDS011;10018;51.230;7.860;2023-03-20T14:14:13;8.40;;;3.70;;
19733;SDS011;10018;51.230;7.860;2023-03-20T14:16:43;8.53;;;3.70;;
19733;SDS011;10018;51.230;7.860;2023-03-20T14:19:19;7.07;;;3.50;;
19733;SDS011;10018;51.230;7.860;2023-03-20T14:21:50;6.70;;;2.90;;
19733;SDS011;10018;51.230;7.860;2023-03-20T14:24:18;6.63;;;2.90;;
19733;SDS011;10018;51.230;7.860;2023-03-20T14:26:50;7.20;;;2.90;;
19733;SDS011;10018;51.230;7.860;2023-03-20T14:29:30;7.07;;;3.47;;
19733;SDS011;10018;51.230;7.860;2023-03-20T14:34:45;10.03;;;3.00;;
19733;SDS011;10018;51.230;7.860;2023-03-20T14:40:13;9.03;;;3.43;;
19733;SDS011;10018;51.230;7.860;2023-03-20T14:53:39;8.93;;;3.50;;
19733;SDS011;10018;51.230;7.860;2023-03-20T14:56:12;9.00;;;3.87;;
19733;SDS011;10018;51.230;7.860;2023-03-20T15:03:46;12.90;;;4.43;;
19733;SDS011;10018;51.230;7.860;2023-03-20T15:06:16;9.27;;;3.63;;
19733;SDS011;10018;51.230;7.860;2023-03-20T15:08:46;8.63;;;4.30;;
19733;SDS011;10018;51.230;7.860;2023-03-20T15:11:15;10.43;;;4.70;;
19733;SDS011;10018;51.230;7.860;2023-03-20T15:13:42;9.23;;;3.93;;
19733;SDS011;10018;51.230;7.860;2023-03-20T15:16:10;8.63;;;3.97;;
19733;SDS011;10018;51.230;7.860;2023-03-20T15:18:41;8.30;;;4.63;;
19733;SDS011;10018;51.230;7.860;2023-03-20T15:21:28;10.13;;;4.83;;
19733;SDS011;10018;51.230;7.860;2023-03-20T15:23:58;10.03;;;5.37;;
19733;SDS011;10018;51.230;7.860;2023-03-20T15:26:25;7.70;;;4.10;;
19733;SDS011;10018;51.230;7.860;2023-03-20T15:29:26;8.27;;;4.93;;
19733;SDS011;10018;51.230;7.860;2023-03-20T15:31:54;10.57;;;4.87;;
19733;SDS011;10018;51.230;7.860;2023-03-20T15:34:24;9.40;;;5.33;;
19733;SDS011;10018;51.230;7.860;2023-03-20T15:36:54;14.03;;;4.80;;
19733;SDS011;10018;51.230;7.860;2023-03-20T15:39:23;9.50;;;4.43;;
19733;SDS011;10018;51.230;7.860;2023-03-20T15:41:54;7.80;;;4.43;;
19733;SDS011;10018;51.230;7.860;2023-03-20T15:44:27;11.03;;;4.83;;
19733;SDS011;10018;51.230;7.860;2023-03-20T15:47:01;9.83;;;4.20;;
19733;SDS011;10018;51.230;7.860;2023-03-20T15:49:31;8.27;;;4.70;;
19733;SDS011;10018;51.230;7.860;2023-03-20T15:51:57;6.73;;;3.83;;
19733;SDS011;10018;51.230;7.860;2023-03-20T15:54:29;9.07;;;4.10;;
19733;SDS011;10018;51.230;7.860;2023-03-20T15:56:56;11.93;;;4.47;;
19733;SDS011;10018;51.230;7.860;2023-03-20T15:59:25;10.13;;;5.10;;
19733;SDS011;10018;51.230;7.860;2023-03-20T16:01:54;10.67;;;5.80;;
19733;SDS011;10018;51.230;7.860;2023-03-20T16:04:21;11.97;;;4.50;;
19733;SDS011;10018;51.230;7.860;2023-03-20T16:06:51;9.77;;;4.50;;
19733;SDS011;10018;51.230;7.860;2023-03-20T16:09:20;11.27;;;4.27;;
19733;SDS011;10018;51.230;7.860;2023-03-20T16:11:48;10.40;;;4.23;;
19733;SDS011;10018;51.230;7.860;2023-03-20T16:14:25;9.63;;;4.20;;
19733;SDS011;10018;51.230;7.860;2023-03-20T16:16:53;8.63;;;3.83;;
19733;SDS011;10018;51.230;7.860;2023-03-20T16:19:20;7.63;;;3.43;;
19733;SDS011;10018;51.230;7.860;2023-03-20T16:21:51;7.60;;;4.17;;
19733;SDS011;10018;51.230;7.860;2023-03-20T16:24:21;10.87;;;5.97;;
19733;SDS011;10018;51.230;7.860;2023-03-20T16:26:52;33.33;;;21.70;;
19733;SDS011;10018;51.230;7.860;2023-03-20T16:29:18;10.33;;;5.53;;
19733;SDS011;10018;51.230;7.860;2023-03-20T16:31:47;11.37;;;5.40;;
19733;SDS011;10018;51.230;7.860;2023-03-20T16:34:23;10.10;;;4.60;;
19733;SDS011;10018;51.230;7.860;2023-03-20T16:36:56;6.30;;;3.20;;
19733;SDS011;10018;51.230;7.860;2023-03-20T16:39:24;8.47;;;3.63;;
19733;SDS011;10018;51.230;7.860;2023-03-20T16:44:34;11.03;;;4.20;;
19733;SDS011;10018;51.230;7.860;2023-03-20T16:50:04;10.30;;;4.20;;
19733;SDS011;10018;51.230;7.860;2023-03-20T16:52:41;11.90;;;3.90;;
19733;SDS011;10018;51.230;7.860;2023-03-20T16:55:12;7.97;;;3.67;;
19733;SDS011;10018;51.230;7.860;2023-03-20T16:57:41;8.13;;;3.83;;
19733;SDS011;10018;51.230;7.860;2023-03-20T17:00:24;8.10;;;3.87;;
19733;SDS011;10018;51.230;7.860;2023-03-20T17:03:05;7.73;;;3.70;;
19733;SDS011;10018;51.230;7.860;2023-03-20T17:05:43;13.03;;;7.53;;
19733;SDS011;10018;51.230;7.860;2023-03-20T17:08:10;45.47;;;34.07;;
19733;SDS011;10018;51.230;7.860;2023-03-20T17:10:38;9.67;;;5.00;;
19733;SDS011;10018;51.230;7.860;2023-03-20T17:13:06;11.30;;;4.13;;
19733;SDS011;10018;51.230;7.860;2023-03-20T17:15:32;6.90;;;3.00;;
19733;SDS011;10018;51.230;7.860;2023-03-20T17:17:58;13.00;;;7.50;;
19733;SDS011;10018;51.230;7.860;2023-03-20T17:20:25;10.00;;;3.33;;
19733;SDS011;10018;51.230;7.860;2023-03-20T17:22:52;55.33;;;49.30;;
19733;SDS011;10018;51.230;7.860;2023-03-20T17:25:18;17.43;;;11.73;;
19733;SDS011;10018;51.230;7.860;2023-03-20T17:27:44;8.40;;;3.53;;
19733;SDS011;10018;51.230;7.860;2023-03-20T17:30:20;10.03;;;5.13;;
19733;SDS011;10018;51.230;7.860;2023-03-20T17:32:47;12.47;;;6.83;;
19733;SDS011;10018;51.230;7.860;2023-03-20T17:35:15;13.53;;;5.63;;
19733;SDS011;10018;51.230;7.860;2023-03-20T17:37:41;11.83;;;4.67;;